createdAt,value
2022-12-27T00:00:20.427Z,1.73
2022-12-27T00:02:47.422Z,1.67
2022-12-27T00:05:15.569Z,2.17
2022-12-27T00:07:44.250Z,2.03
2022-12-27T00:10:12.111Z,2.27
2022-12-27T00:12:44.014Z,2.03
2022-12-27T00:15:11.108Z,1.83
2022-12-27T00:17:40.991Z,2.47
2022-12-27T00:20:11.749Z,2.53
2022-12-27T00:22:40.154Z,2.33
2022-12-27T00:25:08.040Z,2.17
2022-12-27T00:27:37.539Z,2.37
2022-12-27T00:30:05.957Z,2.00
2022-12-27T00:32:33.049Z,2.20
2022-12-27T00:35:00.176Z,1.60
2022-12-27T00:37:27.414Z,2.17
2022-12-27T00:39:54.348Z,2.10
2022-12-27T00:42:23.402Z,3.40
2022-12-27T00:44:50.597Z,2.13
2022-12-27T00:47:17.516Z,1.70
2022-12-27T00:49:47.390Z,2.07
2022-12-27T00:52:14.477Z,1.93
2022-12-27T00:54:44.111Z,2.27
2022-12-27T00:57:11.096Z,2.23
2022-12-27T00:59:37.932Z,2.40
2022-12-27T01:02:04.958Z,2.30
2022-12-27T01:04:32.056Z,2.47
2022-12-27T01:07:02.334Z,2.10
2022-12-27T01:09:29.339Z,2.13
2022-12-27T01:11:56.341Z,2.20
2022-12-27T01:14:25.535Z,2.30
2022-12-27T01:16:52.508Z,1.60
2022-12-27T01:19:19.564Z,2.80
2022-12-27T01:21:46.580Z,1.70
2022-12-27T01:24:13.541Z,2.07
2022-12-27T01:26:43.025Z,1.90
2022-12-27T01:29:13.089Z,1.80
2022-12-27T01:31:40.324Z,3.20
2022-12-27T01:34:09.466Z,1.77
2022-12-27T01:36:36.479Z,2.30
2022-12-27T01:39:04.017Z,2.20
2022-12-27T01:41:54.175Z,1.93
2022-12-27T01:44:39.324Z,1.67
2022-12-27T01:47:46.182Z,2.50
2022-12-27T01:50:28.591Z,1.77
2022-12-27T01:52:59.822Z,2.40
2022-12-27T01:55:36.055Z,2.13
2022-12-27T01:58:11.313Z,1.80
2022-12-27T02:00:40.211Z,1.67
2022-12-27T02:03:10.827Z,2.60
2022-12-27T02:05:41.719Z,1.83
2022-12-27T02:08:29.091Z,1.93
2022-12-27T02:10:57.288Z,1.73
2022-12-27T02:13:29.295Z,2.80
2022-12-27T02:15:56.358Z,2.43
2022-12-27T02:18:25.799Z,1.90
2022-12-27T02:21:26.200Z,2.43
2022-12-27T02:24:33.198Z,2.23
2022-12-27T02:27:33.653Z,2.20
2022-12-27T02:30:07.624Z,2.07
2022-12-27T02:32:55.090Z,1.73
2022-12-27T02:35:33.694Z,2.40
2022-12-27T02:38:18.138Z,1.90
2022-12-27T02:41:05.400Z,2.20
2022-12-27T02:43:51.966Z,2.20
2022-12-27T02:46:43.022Z,2.00
2022-12-27T02:49:52.542Z,2.57
2022-12-27T02:53:04.150Z,2.57
2022-12-27T02:56:36.805Z,1.90
2022-12-27T02:59:15.602Z,2.07
2022-12-27T03:02:10.099Z,1.80
2022-12-27T03:05:16.147Z,2.50
2022-12-27T03:08:24.017Z,2.00
2022-12-27T03:11:18.182Z,2.30
2022-12-27T03:14:20.743Z,2.43
2022-12-27T03:16:56.240Z,2.30
2022-12-27T03:19:48.363Z,1.90
2022-12-27T03:22:40.292Z,1.93
2022-12-27T03:25:26.329Z,2.97
2022-12-27T03:28:20.685Z,2.80
2022-12-27T03:31:13.968Z,2.30
2022-12-27T03:33:43.223Z,2.47
2022-12-27T03:36:40.100Z,3.20
2022-12-27T03:39:11.485Z,2.30
2022-12-27T03:42:20.649Z,3.10
2022-12-27T03:44:50.114Z,2.47
2022-12-27T03:47:39.709Z,3.17
2022-12-27T03:50:25.401Z,3.10
2022-12-27T03:52:58.395Z,2.80
2022-12-27T03:55:33.444Z,3.20
2022-12-27T03:58:00.889Z,2.50
2022-12-27T04:00:28.057Z,3.20
2022-12-27T04:02:57.819Z,2.83
2022-12-27T04:05:29.302Z,2.90
2022-12-27T04:08:14.602Z,3.50
2022-12-27T04:11:00.164Z,3.40
2022-12-27T04:13:45.856Z,2.90
2022-12-27T04:16:31.043Z,3.90
2022-12-27T04:19:16.810Z,3.13
2022-12-27T04:22:01.999Z,3.87
2022-12-27T04:24:47.300Z,3.50
2022-12-27T04:27:32.730Z,3.50
2022-12-27T04:30:18.010Z,4.87
2022-12-27T04:33:06.519Z,3.70
2022-12-27T04:35:36.034Z,4.00
2022-12-27T04:38:05.484Z,3.90
2022-12-27T04:40:50.754Z,3.97
2022-12-27T04:43:36.122Z,3.37
2022-12-27T04:46:21.789Z,4.27
2022-12-27T04:49:07.017Z,3.37
2022-12-27T04:51:52.451Z,3.80
2022-12-27T04:54:43.814Z,3.63
2022-12-27T04:57:10.810Z,3.30
2022-12-27T04:59:58.555Z,4.10
2022-12-27T05:02:30.393Z,3.80
2022-12-27T05:05:00.479Z,3.97
2022-12-27T05:07:48.293Z,4.50
2022-12-27T05:10:38.469Z,4.10
2022-12-27T05:13:30.825Z,4.37
2022-12-27T05:15:58.148Z,4.37
2022-12-27T05:18:25.106Z,5.17
2022-12-27T05:20:54.725Z,5.60
2022-12-27T05:23:42.391Z,4.87
2022-12-27T05:26:09.613Z,4.87
2022-12-27T05:28:36.460Z,4.73
2022-12-27T05:31:03.425Z,4.70
2022-12-27T05:33:33.385Z,3.77
2022-12-27T05:36:00.882Z,5.10
2022-12-27T05:38:29.999Z,4.40
2022-12-27T05:41:04.152Z,5.07
2022-12-27T05:43:35.098Z,5.87
2022-12-27T05:46:14.258Z,4.60
2022-12-27T05:48:42.007Z,4.27
2022-12-27T05:51:12.635Z,5.17
2022-12-27T05:53:40.361Z,3.83
2022-12-27T05:56:11.342Z,5.33
2022-12-27T05:58:38.314Z,4.77
2022-12-27T06:01:10.563Z,6.30
2022-12-27T06:03:38.038Z,5.27
2022-12-27T06:06:08.469Z,4.67
2022-12-27T06:08:36.734Z,5.73
2022-12-27T06:11:10.449Z,5.17
2022-12-27T06:13:41.948Z,5.93
2022-12-27T06:16:12.275Z,5.50
2022-12-27T06:18:41.480Z,4.90
2022-12-27T06:21:17.619Z,4.80
2022-12-27T06:23:45.895Z,6.00
2022-12-27T06:26:28.073Z,4.73
2022-12-27T06:28:57.303Z,4.73
2022-12-27T06:31:27.892Z,4.80
2022-12-27T06:33:57.782Z,5.27
2022-12-27T06:36:32.634Z,5.37
2022-12-27T06:39:00.886Z,5.20
2022-12-27T06:41:27.886Z,4.87
2022-12-27T06:44:00.939Z,4.47
2022-12-27T06:46:30.083Z,5.53
2022-12-27T06:48:57.582Z,4.60
2022-12-27T06:51:26.569Z,5.10
2022-12-27T06:53:53.531Z,5.60
2022-12-27T06:56:25.077Z,4.80
2022-12-27T06:58:52.193Z,5.23
2022-12-27T07:01:27.394Z,4.80
2022-12-27T07:03:59.526Z,5.30
2022-12-27T07:06:36.024Z,4.70
2022-12-27T07:09:06.066Z,4.57
2022-12-27T07:11:39.442Z,5.10
2022-12-27T07:14:10.263Z,4.43
2022-12-27T07:16:37.599Z,4.47
2022-12-27T07:19:07.128Z,4.67
2022-12-27T07:21:37.152Z,5.50
2022-12-27T07:24:09.322Z,5.07
2022-12-27T07:26:36.275Z,4.57
2022-12-27T07:29:05.719Z,5.47
2022-12-27T07:31:35.783Z,4.40
2022-12-27T07:34:06.386Z,5.00
2022-12-27T07:36:37.549Z,5.20
2022-12-27T07:39:05.841Z,4.43
2022-12-27T07:41:35.876Z,4.40
2022-12-27T07:44:03.921Z,4.07
2022-12-27T07:46:31.196Z,5.13
2022-12-27T07:48:58.743Z,4.60
2022-12-27T07:51:27.028Z,4.70
2022-12-27T07:53:54.508Z,4.50
2022-12-27T07:56:27.325Z,4.60
2022-12-27T07:58:57.335Z,5.10
2022-12-27T08:01:28.066Z,5.03
2022-12-27T08:03:55.563Z,5.80
2022-12-27T08:06:23.903Z,5.37
2022-12-27T08:08:55.584Z,4.40
2022-12-27T08:11:26.714Z,4.10
2022-12-27T08:13:53.935Z,7.17
2022-12-27T08:16:24.911Z,5.20
2022-12-27T08:18:56.334Z,4.50
2022-12-27T08:21:26.304Z,5.00
2022-12-27T08:24:02.212Z,5.10
2022-12-27T08:26:32.124Z,5.00
2022-12-27T08:29:01.194Z,4.67
2022-12-27T08:31:30.314Z,4.40
2022-12-27T08:33:59.623Z,4.60
2022-12-27T08:39:13.606Z,4.53
2022-12-27T08:41:40.673Z,4.50
2022-12-27T08:44:12.575Z,4.20
2022-12-27T08:46:39.714Z,4.23
2022-12-27T08:49:06.734Z,4.17
2022-12-27T08:51:41.068Z,4.13
2022-12-27T08:54:11.550Z,4.17
2022-12-27T08:56:38.495Z,3.60
2022-12-27T08:59:05.466Z,3.73
2022-12-27T09:01:32.862Z,3.53
2022-12-27T09:03:59.836Z,3.60
2022-12-27T09:06:28.889Z,3.53
2022-12-27T09:08:59.683Z,3.30
2022-12-27T09:11:30.656Z,3.33
2022-12-27T09:14:01.394Z,3.70
2022-12-27T09:16:29.865Z,3.73
2022-12-27T09:18:59.254Z,3.17
2022-12-27T09:21:29.207Z,4.20
2022-12-27T09:23:59.119Z,3.93
2022-12-27T09:26:29.525Z,4.07
2022-12-27T09:29:00.080Z,4.13
2022-12-27T09:31:28.304Z,3.37
2022-12-27T09:33:55.822Z,4.00
2022-12-27T09:36:30.809Z,4.60
2022-12-27T09:38:59.055Z,4.03
2022-12-27T09:45:17.870Z,4.17
2022-12-27T09:48:09.424Z,3.63
2022-12-27T09:50:55.874Z,2.57
2022-12-27T09:53:48.701Z,2.83
2022-12-27T09:56:35.693Z,3.37
2022-12-27T09:59:24.115Z,3.90
2022-12-27T10:01:51.653Z,3.00
2022-12-27T10:04:21.712Z,3.50
2022-12-27T10:07:03.797Z,3.13
2022-12-27T10:10:29.433Z,3.07
2022-12-27T10:13:23.705Z,3.20
2022-12-27T10:16:18.013Z,3.30
2022-12-27T10:19:13.359Z,3.20
2022-12-27T10:22:17.488Z,3.20
2022-12-27T10:24:57.337Z,8.50
2022-12-27T10:27:31.939Z,3.93
2022-12-27T10:30:00.316Z,3.23
2022-12-27T10:32:30.273Z,3.70
2022-12-27T10:35:01.326Z,3.23
2022-12-27T10:37:28.741Z,4.13
2022-12-27T10:40:32.487Z,4.60
2022-12-27T10:43:18.444Z,4.10
2022-12-27T10:45:45.593Z,3.93
2022-12-27T10:48:25.120Z,4.60
2022-12-27T10:50:59.355Z,3.80
2022-12-27T10:53:40.609Z,3.40
2022-12-27T10:56:17.500Z,3.97
2022-12-27T10:58:58.862Z,4.70
2022-12-27T11:01:32.469Z,4.10
2022-12-27T11:04:24.087Z,5.13
2022-12-27T11:07:00.117Z,4.80
2022-12-27T11:09:41.512Z,3.30
2022-12-27T11:12:18.620Z,3.50
2022-12-27T11:15:25.080Z,3.07
2022-12-27T11:18:02.260Z,3.57
2022-12-27T11:20:49.740Z,3.27
2022-12-27T11:23:22.647Z,3.57
2022-12-27T11:25:58.220Z,3.80
2022-12-27T11:28:50.923Z,3.60
2022-12-27T11:31:35.868Z,3.80
2022-12-27T11:34:16.012Z,3.50
2022-12-27T11:36:48.306Z,3.77
2022-12-27T11:39:43.034Z,2.70
2022-12-27T11:42:38.482Z,2.90
2022-12-27T11:45:49.603Z,4.03
2022-12-27T11:48:45.265Z,3.00
2022-12-27T11:51:40.236Z,4.20
2022-12-27T11:54:57.129Z,3.70
2022-12-27T11:57:42.598Z,3.87
2022-12-27T12:00:23.651Z,3.53
2022-12-27T12:03:27.898Z,4.23
2022-12-27T12:06:15.869Z,3.70
2022-12-27T12:09:10.391Z,3.53
2022-12-27T12:12:01.102Z,3.73
2022-12-27T12:14:44.248Z,3.13
2022-12-27T12:17:41.769Z,3.60
2022-12-27T12:20:50.336Z,4.00
2022-12-27T12:23:26.742Z,3.87
2022-12-27T12:26:16.104Z,3.17
2022-12-27T12:29:06.517Z,5.07
2022-12-27T12:31:55.904Z,3.60
2022-12-27T12:34:56.575Z,3.73
2022-12-27T12:38:00.638Z,3.90
2022-12-27T12:41:11.032Z,3.70
2022-12-27T12:43:43.667Z,3.60
2022-12-27T12:46:46.069Z,3.13
2022-12-27T12:49:32.722Z,4.30
2022-12-27T12:52:24.595Z,3.70
2022-12-27T12:55:19.953Z,4.50
2022-12-27T12:58:08.022Z,4.27
2022-12-27T13:00:49.637Z,4.03
2022-12-27T13:04:01.960Z,4.83
2022-12-27T13:07:11.862Z,2.80
2022-12-27T13:10:17.001Z,3.57
2022-12-27T13:13:20.327Z,3.50
2022-12-27T13:16:21.741Z,4.47
2022-12-27T13:19:14.694Z,4.10
2022-12-27T13:22:19.391Z,4.40
2022-12-27T13:25:21.055Z,4.87
2022-12-27T13:28:13.993Z,4.40
2022-12-27T13:31:09.674Z,6.77
2022-12-27T13:34:16.295Z,4.80
2022-12-27T13:37:24.853Z,4.20
2022-12-27T13:40:25.883Z,4.50
2022-12-27T13:43:40.834Z,4.53
2022-12-27T13:46:33.168Z,6.33
2022-12-27T13:49:40.571Z,6.27
2022-12-27T13:52:59.731Z,4.70
2022-12-27T13:55:45.146Z,4.20
2022-12-27T13:58:20.825Z,4.57
2022-12-27T14:01:24.851Z,4.53
2022-12-27T14:04:28.728Z,3.30
2022-12-27T14:07:21.795Z,3.57
2022-12-27T14:10:15.292Z,3.60
2022-12-27T14:12:48.062Z,4.13
2022-12-27T14:15:22.738Z,3.83
2022-12-27T14:18:08.379Z,5.50
2022-12-27T14:20:51.479Z,3.37
2022-12-27T14:23:56.005Z,4.63
2022-12-27T14:26:48.437Z,4.43
2022-12-27T14:29:45.131Z,5.50
2022-12-27T14:32:33.613Z,3.40
2022-12-27T14:35:47.086Z,3.90
2022-12-27T14:38:39.756Z,5.00
2022-12-27T14:41:29.350Z,4.00
2022-12-27T14:44:29.568Z,3.90
2022-12-27T14:47:45.750Z,4.43
2022-12-27T14:50:40.051Z,4.60
2022-12-27T14:53:37.024Z,4.40
2022-12-27T14:56:24.988Z,5.00
2022-12-27T14:59:09.642Z,6.30
2022-12-27T15:02:20.631Z,5.30
2022-12-27T15:05:23.575Z,4.57
2022-12-27T15:08:12.110Z,7.40
2022-12-27T15:10:54.001Z,4.97
2022-12-27T15:13:54.806Z,5.70
2022-12-27T15:16:52.634Z,5.93
2022-12-27T15:19:59.556Z,5.57
2022-12-27T15:22:38.227Z,5.43
2022-12-27T15:25:38.372Z,6.30
2022-12-27T15:28:52.542Z,4.90
2022-12-27T15:31:19.297Z,6.00
2022-12-27T15:34:36.302Z,6.00
2022-12-27T15:37:03.542Z,5.90
2022-12-27T15:39:47.911Z,5.20
2022-12-27T15:42:44.825Z,4.90
2022-12-27T15:45:48.600Z,5.73
2022-12-27T15:48:51.589Z,5.50
2022-12-27T15:51:45.810Z,5.90
2022-12-27T15:54:30.625Z,7.57
2022-12-27T15:57:03.172Z,6.47
2022-12-27T15:59:48.144Z,7.47
2022-12-27T16:02:34.123Z,6.00
2022-12-27T16:05:01.108Z,5.30
2022-12-27T16:07:52.558Z,5.67
2022-12-27T16:10:31.962Z,5.47
2022-12-27T16:13:06.893Z,5.60
2022-12-27T16:15:55.439Z,5.80
2022-12-27T16:18:22.280Z,5.33
2022-12-27T16:21:27.595Z,5.43
2022-12-27T16:24:03.627Z,5.97
2022-12-27T16:26:35.783Z,6.00
2022-12-27T16:29:13.537Z,6.10
2022-12-27T16:31:49.530Z,6.10
2022-12-27T16:34:31.750Z,7.43
2022-12-27T16:37:00.774Z,6.27
2022-12-27T16:39:51.811Z,8.23
2022-12-27T16:42:28.576Z,7.37
2022-12-27T16:45:23.127Z,6.93
2022-12-27T16:48:11.024Z,7.00
2022-12-27T16:51:23.442Z,8.23
2022-12-27T16:54:16.716Z,6.83
2022-12-27T16:56:48.035Z,6.43
2022-12-27T17:00:07.417Z,5.13
2022-12-27T17:02:54.490Z,5.60
2022-12-27T17:05:36.366Z,7.63
2022-12-27T17:08:30.585Z,6.10
2022-12-27T17:11:28.285Z,6.07
2022-12-27T17:14:03.147Z,7.23
2022-12-27T17:16:44.265Z,6.17
2022-12-27T17:19:45.925Z,6.57
2022-12-27T17:22:15.944Z,6.87
2022-12-27T17:24:56.059Z,6.93
2022-12-27T17:27:38.801Z,7.70
2022-12-27T17:30:24.644Z,6.80
2022-12-27T17:33:26.274Z,9.03
2022-12-27T17:36:26.390Z,7.97
2022-12-27T17:39:08.710Z,9.73
2022-12-27T17:42:31.252Z,8.77
2022-12-27T17:45:38.281Z,8.40
2022-12-27T17:48:29.331Z,7.80
2022-12-27T17:51:05.384Z,8.97
2022-12-27T17:53:53.145Z,9.50
2022-12-27T17:57:02.574Z,9.50
2022-12-27T17:59:34.851Z,8.40
2022-12-27T18:02:12.408Z,8.20
2022-12-27T18:04:48.129Z,7.37
2022-12-27T18:07:22.905Z,8.70
2022-12-27T18:09:53.723Z,8.77
2022-12-27T18:12:54.020Z,8.63
2022-12-27T18:15:26.910Z,9.70
2022-12-27T18:18:09.788Z,7.80
2022-12-27T18:20:42.160Z,8.00
2022-12-27T18:23:17.667Z,10.87
2022-12-27T18:25:44.490Z,8.23
2022-12-27T18:28:49.125Z,8.57
2022-12-27T18:31:35.902Z,8.30
2022-12-27T18:34:19.144Z,9.20
2022-12-27T18:36:58.758Z,8.83
2022-12-27T18:39:29.904Z,9.40
2022-12-27T18:41:58.381Z,9.33
2022-12-27T18:44:54.120Z,8.73
2022-12-27T18:47:27.155Z,9.53
2022-12-27T18:50:03.337Z,8.80
2022-12-27T18:52:34.816Z,8.13
2022-12-27T18:55:28.967Z,8.80
2022-12-27T18:58:20.802Z,8.10
2022-12-27T19:00:59.087Z,7.87
2022-12-27T19:03:27.254Z,8.10
2022-12-27T19:06:04.743Z,8.60
2022-12-27T19:08:52.765Z,7.70
2022-12-27T19:11:29.428Z,8.30
2022-12-27T19:14:01.177Z,9.13
2022-12-27T19:16:34.371Z,10.03
2022-12-27T19:19:20.428Z,9.83
2022-12-27T19:21:49.581Z,10.17
2022-12-27T19:24:28.813Z,9.30
2022-12-27T19:27:00.735Z,11.03
2022-12-27T19:29:36.534Z,9.93
2022-12-27T19:32:11.907Z,10.57
2022-12-27T19:34:50.614Z,11.53
2022-12-27T19:37:18.177Z,12.20
2022-12-27T19:39:47.843Z,12.30
2022-12-27T19:42:30.808Z,11.57
2022-12-27T19:44:57.998Z,13.63
2022-12-27T19:47:29.002Z,13.60
2022-12-27T19:49:56.026Z,15.47
2022-12-27T19:52:27.106Z,14.10
2022-12-27T19:55:08.063Z,14.70
2022-12-27T19:57:35.121Z,15.33
2022-12-27T20:00:05.366Z,15.40
2022-12-27T20:02:38.676Z,15.03
2022-12-27T20:05:06.765Z,15.37
2022-12-27T20:07:39.394Z,15.93
2022-12-27T20:10:07.334Z,16.13
2022-12-27T20:12:38.747Z,15.97
2022-12-27T20:15:06.629Z,15.83
2022-12-27T20:17:41.051Z,17.00
2022-12-27T20:20:14.847Z,17.97
2022-12-27T20:22:42.596Z,15.33
2022-12-27T20:25:11.543Z,15.67
2022-12-27T20:27:42.937Z,15.23
2022-12-27T20:30:11.298Z,14.93
2022-12-27T20:32:39.966Z,17.50
2022-12-27T20:35:11.173Z,16.70
2022-12-27T20:37:39.458Z,16.90
2022-12-27T20:40:13.847Z,15.47
2022-12-27T20:42:41.384Z,15.70
2022-12-27T20:45:11.795Z,16.60
2022-12-27T20:47:40.733Z,17.00
2022-12-27T20:50:10.740Z,16.23
2022-12-27T20:52:39.156Z,16.80
2022-12-27T20:55:12.263Z,16.77
2022-12-27T20:57:39.739Z,14.87
2022-12-27T21:00:13.629Z,15.27
2022-12-27T21:02:43.062Z,15.60
2022-12-27T21:05:12.764Z,13.63
2022-12-27T21:07:39.692Z,14.73
2022-12-27T21:10:08.760Z,14.20
2022-12-27T21:12:42.401Z,13.03
2022-12-27T21:15:11.656Z,14.63
2022-12-27T21:17:39.209Z,13.40
2022-12-27T21:20:11.161Z,13.70
2022-12-27T21:22:40.339Z,14.23
2022-12-27T21:25:08.797Z,13.00
2022-12-27T21:27:36.789Z,12.17
2022-12-27T21:30:08.491Z,11.73
2022-12-27T21:32:37.004Z,12.80
2022-12-27T21:35:05.360Z,12.67
2022-12-27T21:37:32.804Z,10.80
2022-12-27T21:40:02.051Z,11.10
2022-12-27T21:42:28.938Z,11.37
2022-12-27T21:44:55.902Z,10.70
2022-12-27T21:47:23.412Z,10.37
2022-12-27T21:49:52.825Z,10.33
2022-12-27T21:52:19.717Z,10.47
2022-12-27T21:54:46.535Z,10.60
2022-12-27T21:57:13.451Z,10.07
2022-12-27T21:59:40.286Z,10.57
2022-12-27T22:02:08.739Z,9.20
2022-12-27T22:04:35.726Z,8.70
2022-12-27T22:07:02.653Z,9.10
2022-12-27T22:09:29.616Z,8.17
2022-12-27T22:11:56.819Z,8.90
2022-12-27T22:14:28.401Z,9.20
2022-12-27T22:17:00.635Z,8.80
2022-12-27T22:19:27.985Z,8.70
2022-12-27T22:21:54.976Z,8.20
2022-12-27T22:24:21.840Z,8.00
2022-12-27T22:26:50.132Z,8.23
2022-12-27T22:29:17.900Z,7.70
2022-12-27T22:31:45.073Z,7.63
2022-12-27T22:34:14.561Z,8.00
2022-12-27T22:36:41.431Z,7.90
2022-12-27T22:39:08.373Z,8.40
2022-12-27T22:41:39.100Z,6.47
2022-12-27T22:44:11.184Z,7.40
2022-12-27T22:47:06.869Z,6.23
2022-12-27T22:49:26.193Z,6.00
2022-12-27T22:51:53.650Z,6.17
2022-12-27T22:54:20.649Z,5.13
2022-12-27T22:57:10.860Z,5.80
2022-12-27T22:59:37.902Z,5.30
2022-12-27T23:02:05.209Z,5.60
2022-12-27T23:04:34.485Z,5.00
2022-12-27T23:07:02.185Z,4.10
2022-12-27T23:09:29.391Z,4.73
2022-12-27T23:11:56.606Z,4.13
2022-12-27T23:14:26.110Z,3.87
2022-12-27T23:16:53.104Z,3.57
2022-12-27T23:19:24.351Z,3.23
2022-12-27T23:21:53.593Z,3.30
2022-12-27T23:24:22.977Z,3.50
2022-12-27T23:26:49.877Z,3.67
2022-12-27T23:29:17.002Z,3.37
2022-12-27T23:31:54.944Z,3.33
2022-12-27T23:34:28.728Z,2.93
2022-12-27T23:36:58.052Z,4.10
2022-12-27T23:39:27.580Z,3.17
2022-12-27T23:41:55.240Z,3.77
2022-12-27T23:44:34.399Z,2.90
2022-12-27T23:47:07.247Z,2.53
2022-12-27T23:49:34.541Z,3.23
2022-12-27T23:52:04.196Z,2.97
2022-12-27T23:54:31.183Z,3.07
2022-12-27T23:57:22.274Z,2.47
2022-12-27T23:59:47.502Z,2.90
